MSC Bettina — HPFG — position and weather

sailwx.info

Track history (hours):
 
Tides and Currents Weather Stations Pressure Air Temp Water Temp Dewpoint Dewpoint Depression Visibility Wind Speed Wind Dir Waves Ship Positions

MSC Bettina

Last reported at 2015-Sep-01 00:31 UTC. Time now 2015-Sep-01 20:25 UTC.
Position N 36°00' E 120°12'.

Length 366 m; draft 10.6 m.

Type: Ship (hazmat cat A). MMSI: 352361000.

Date/timePositionNaut miles runAvg speedWind from/ knotsBaromVisibWave heightAir tempDewpointWater temp
2015-Sep-01 00:31N 36°00' E 120°12'0 0.0
2015-Aug-31 23:28N 36°00' E 120°12'0 0.0
2015-Aug-31 22:31N 36°00' E 120°12'0 0.0
2015-Aug-31 21:31N 36°00' E 120°12'0 0.0
2015-Aug-31 20:31N 36°00' E 120°12'0 0.0
2015-Aug-31 19:31N 36°00' E 120°12'0 0.0
2015-Aug-31 18:30N 36°00' E 120°12'0 0.0
2015-Aug-31 17:32N 36°00' E 120°12'0 0.0
2015-Aug-31 16:32N 36°00' E 120°12'0 0.0
2015-Aug-31 15:32N 36°00' E 120°12'0 0.0
2015-Aug-31 14:32N 36°00' E 120°12'0 0.0
2015-Aug-31 13:29N 36°00' E 120°12'0 0.0
2015-Aug-31 12:32N 36°00' E 120°12'0 0.0
2015-Aug-31 11:32N 36°00' E 120°12'0 0.0
2015-Aug-31 10:29N 36°00' E 120°12'0 0.0
2015-Aug-31 09:29N 36°00' E 120°12'  
2015-Aug-27 04:06N 21°55' E 114°28'3218.6
2015-Aug-27 02:24N 21°59' E 113°54'1011.2
2015-Aug-27 01:28N 22°09' E 113°50'1212.7
2015-Aug-27 00:33N 22°20' E 113°49'8 0.5
2015-Aug-26 09:14N 22°28' E 113°53'0 0.0
2015-Aug-26 08:32N 22°28' E 113°53'0 0.0
2015-Aug-26 07:32N 22°28' E 113°53'0 0.0
2015-Aug-26 06:32N 22°28' E 113°53'0 0.0
2015-Aug-26 05:32N 22°28' E 113°53'0 0.0
2015-Aug-26 04:32N 22°28' E 113°53'0 0.0
2015-Aug-26 02:08N 22°28' E 113°53'0 0.0
2015-Aug-26 01:26N 22°28' E 113°53'0 0.0
2015-Aug-26 00:32N 22°28' E 113°53'6 3.0
2015-Aug-25 22:33N 22°22' E 113°50'1111.0
2015-Aug-25 21:33N 22°11' E 113°50'  
2015-Aug-22 06:33N 01°15' E 103°60'1211.5
2015-Aug-22 05:33N 01°13' E 103°48'4 4.2
2015-Aug-22 04:30N 01°16' E 103°46'0 0.0
2015-Aug-22 03:30N 01°16' E 103°46'  
Track history (hours):
 
Tides and Currents Weather Stations Pressure Air Temp Water Temp Dewpoint Dewpoint Depression Visibility Wind Speed Wind Dir Waves Ship Positions

MSC Bettina

Last reported at 2015-Sep-01 00:31 UTC. Time now 2015-Sep-01 20:25 UTC.
Position N 36°00' E 120°12'.

Length 366 m; draft 10.6 m.

Type: Ship (hazmat cat A). MMSI: 352361000.

Date/timePositionNaut miles runAvg speedWind from/ knotsBaromVisibWave heightAir tempDewpointWater temp
2015-Sep-01 00:31N 36°00' E 120°12'0 0.0
2015-Aug-31 23:28N 36°00' E 120°12'0 0.0
2015-Aug-31 22:31N 36°00' E 120°12'0 0.0
2015-Aug-31 21:31N 36°00' E 120°12'0 0.0
2015-Aug-31 20:31N 36°00' E 120°12'0 0.0
2015-Aug-31 19:31N 36°00' E 120°12'0 0.0
2015-Aug-31 18:30N 36°00' E 120°12'0 0.0
2015-Aug-31 17:32N 36°00' E 120°12'0 0.0
2015-Aug-31 16:32N 36°00' E 120°12'0 0.0
2015-Aug-31 15:32N 36°00' E 120°12'0 0.0
2015-Aug-31 14:32N 36°00' E 120°12'0 0.0
2015-Aug-31 13:29N 36°00' E 120°12'0 0.0
2015-Aug-31 12:32N 36°00' E 120°12'0 0.0
2015-Aug-31 11:32N 36°00' E 120°12'0 0.0
2015-Aug-31 10:29N 36°00' E 120°12'0 0.0
2015-Aug-31 09:29N 36°00' E 120°12'  
2015-Aug-27 04:06N 21°55' E 114°28'3218.6
2015-Aug-27 02:24N 21°59' E 113°54'1011.2
2015-Aug-27 01:28N 22°09' E 113°50'1212.7
2015-Aug-27 00:33N 22°20' E 113°49'8 0.5
2015-Aug-26 09:14N 22°28' E 113°53'0 0.0
2015-Aug-26 08:32N 22°28' E 113°53'0 0.0
2015-Aug-26 07:32N 22°28' E 113°53'0 0.0
2015-Aug-26 06:32N 22°28' E 113°53'0 0.0
2015-Aug-26 05:32N 22°28' E 113°53'0 0.0
2015-Aug-26 04:32N 22°28' E 113°53'0 0.0
2015-Aug-26 02:08N 22°28' E 113°53'0 0.0
2015-Aug-26 01:26N 22°28' E 113°53'0 0.0
2015-Aug-26 00:32N 22°28' E 113°53'6 3.0
2015-Aug-25 22:33N 22°22' E 113°50'1111.0
2015-Aug-25 21:33N 22°11' E 113°50'  
2015-Aug-22 06:33N 01°15' E 103°60'1211.5
2015-Aug-22 05:33N 01°13' E 103°48'4 4.2
2015-Aug-22 04:30N 01°16' E 103°46'0 0.0
2015-Aug-22 03:30N 01°16' E 103°46'  

Dump ship's entire track history